Time;durP1;ratioP1;P1;durP2;ratioP2;P2;SDS_P1;SDS_P2;PMS_P1;PMS_P2;Temp;Humidity;BMP_temperature;BMP_pressure;BME280_temperature;BME280_humidity;BME280_pressure;Samples;Min_cycle;Max_cycle;Signal;HPM_P1;HPM_P2
2022/06/29 00:00:02;;;;;;;5.30;1.58;;;15.40;99.90;;;;;;5072318;28;20033;-81
2022/06/29 00:02:28;;;;;;;2.55;1.73;;;15.40;99.90;;;;;;5054575;28;20062;-81
2022/06/29 00:04:53;;;;;;;3.92;1.65;;;15.30;99.90;;;;;;5054680;28;20419;-81
2022/06/29 00:07:19;;;;;;;8.23;2.35;;;15.30;99.90;;;;;;5072543;28;20452;-81
2022/06/29 00:09:45;;;;;;;3.70;1.58;;;15.30;99.90;;;;;;5072225;28;20461;-80
2022/06/29 00:12:11;;;;;;;3.13;1.52;;;15.30;99.90;;;;;;5054351;28;20078;-81
2022/06/29 00:14:41;;;;;;;5.38;1.90;;;15.40;99.90;;;;;;5071621;28;20115;-81
2022/06/29 00:17:11;;;;;;;3.13;1.30;;;15.30;99.90;;;;;;5054286;28;20404;-81
2022/06/29 00:19:41;;;;;;;1.38;1.10;;;15.30;99.90;;;;;;5071746;28;20119;-80
2022/06/29 00:22:08;;;;;;;3.28;1.40;;;15.30;99.90;;;;;;5072170;28;20036;-81
2022/06/29 00:24:34;;;;;;;2.25;1.70;;;15.30;99.90;;;;;;5054520;28;20070;-81
2022/06/29 00:27:00;;;;;;;3.70;1.75;;;15.20;99.90;;;;;;5054173;28;20407;-81
2022/06/29 00:29:26;;;;;;;4.57;1.63;;;15.20;99.90;;;;;;5037402;28;20055;-80
2022/06/29 00:31:52;;;;;;;3.10;1.50;;;15.10;99.90;;;;;;5071648;28;20037;-81
2022/06/29 00:34:17;;;;;;;2.13;1.50;;;15.00;99.90;;;;;;5037385;28;20055;-81
2022/06/29 00:36:43;;;;;;;3.00;1.75;;;15.00;99.90;;;;;;5054132;28;20403;-81
2022/06/29 00:39:09;;;;;;;4.63;1.58;;;14.80;99.90;;;;;;5054228;28;20067;-80
2022/06/29 00:41:39;;;;;;;4.10;1.33;;;14.90;99.90;;;;;;5053958;28;20471;-80
2022/06/29 00:44:07;;;;;;;3.42;1.65;;;14.90;99.90;;;;;;5037222;28;20036;-81
2022/06/29 00:46:34;;;;;;;4.47;1.77;;;14.90;99.90;;;;;;5053471;28;20076;-81
2022/06/29 00:49:00;;;;;;;2.42;1.73;;;14.80;99.90;;;;;;5053903;28;20059;-81
2022/06/29 00:51:30;;;;;;;5.07;1.45;;;14.80;99.90;;;;;;5071409;28;20040;-80
2022/06/29 00:53:58;;;;;;;2.92;1.55;;;14.80;99.90;;;;;;5036938;28;20072;-81
2022/06/29 00:56:25;;;;;;;3.88;1.67;;;14.80;99.90;;;;;;5036997;28;20044;-81
2022/06/29 00:58:55;;;;;;;2.33;1.55;;;14.80;99.90;;;;;;5071665;28;20041;-80
2022/06/29 01:01:20;;;;;;;5.82;2.03;;;14.80;99.90;;;;;;5053115;28;20495;-81
2022/06/29 01:03:46;;;;;;;2.90;1.67;;;14.70;99.90;;;;;;5053822;28;20120;-80
2022/06/29 01:06:12;;;;;;;4.13;1.80;;;14.70;99.90;;;;;;5071598;28;20510;-81
2022/06/29 01:08:37;;;;;;;5.10;1.77;;;14.60;99.90;;;;;;5071292;28;20307;-80
2022/06/29 01:11:03;;;;;;;3.60;1.88;;;14.60;99.90;;;;;;5070887;28;20424;-80
2022/06/29 01:13:29;;;;;;;2.53;1.63;;;14.50;99.90;;;;;;5053351;28;20032;-80
2022/06/29 01:15:54;;;;;;;2.33;1.60;;;14.40;99.90;;;;;;5071233;28;20036;-81
2022/06/29 01:18:20;;;;;;;3.35;1.58;;;14.50;99.90;;;;;;5053480;28;20109;-78
2022/06/29 01:20:46;;;;;;;4.80;1.60;;;14.50;99.90;;;;;;5054038;28;20230;-77
2022/06/29 01:23:12;;;;;;;3.80;1.67;;;14.50;99.90;;;;;;5054730;28;20437;-77
2022/06/29 01:25:38;;;;;;;3.83;1.90;;;14.40;99.90;;;;;;5037439;28;20072;-77
2022/06/29 01:28:04;;;;;;;4.28;1.60;;;14.40;99.90;;;;;;5037633;28;20036;-77
2022/06/29 01:30:29;;;;;;;2.20;1.65;;;14.40;99.90;;;;;;5037198;28;20076;-77
2022/06/29 01:32:55;;;;;;;4.10;1.60;;;14.50;99.90;;;;;;5072249;28;20059;-78
2022/06/29 01:35:23;;;;;;;5.72;2.05;;;14.50;99.90;;;;;;5037602;28;20032;-80
2022/06/29 01:37:49;;;;;;;3.97;1.95;;;14.40;99.90;;;;;;5054493;28;20048;-77
2022/06/29 01:40:15;;;;;;;4.50;1.63;;;14.40;99.90;;;;;;5072032;28;20118;-77
2022/06/29 01:42:41;;;;;;;2.22;1.65;;;14.40;99.90;;;;;;5037104;28;20048;-77
2022/06/29 01:45:07;;;;;;;6.07;1.92;;;14.40;99.90;;;;;;5037477;28;20525;-77
2022/06/29 01:47:33;;;;;;;2.63;1.52;;;14.40;99.90;;;;;;5072005;28;20051;-77
2022/06/29 01:49:59;;;;;;;4.35;1.95;;;14.20;99.90;;;;;;5053867;28;20049;-77
2022/06/29 01:52:24;;;;;;;8.02;2.40;;;14.40;99.90;;;;;;5072187;28;20056;-78
2022/06/29 01:54:50;;;;;;;3.72;1.80;;;14.20;99.90;;;;;;5072029;28;20036;-77
2022/06/29 01:57:16;;;;;;;4.63;1.95;;;14.30;99.90;;;;;;5072155;28;20032;-79
2022/06/29 01:59:41;;;;;;;2.30;1.80;;;14.20;99.90;;;;;;5053884;28;20035;-78
2022/06/29 02:02:08;;;;;;;5.07;1.95;;;14.40;99.90;;;;;;5072219;28;20217;-77
2022/06/29 02:04:33;;;;;;;2.88;1.92;;;14.30;99.90;;;;;;5054054;28;20102;-77
2022/06/29 02:06:59;;;;;;;2.22;2.00;;;14.30;99.90;;;;;;5072283;28;20044;-77
2022/06/29 02:09:25;;;;;;;3.47;2.10;;;14.30;99.90;;;;;;5037468;28;20037;-78
2022/06/29 02:11:51;;;;;;;6.88;2.40;;;14.30;99.90;;;;;;5053554;28;20484;-78
2022/06/29 02:14:16;;;;;;;9.95;2.70;;;14.40;99.90;;;;;;5053908;28;20074;-78
2022/06/29 02:16:42;;;;;;;2.67;1.90;;;14.30;99.90;;;;;;5036896;28;20529;-79
2022/06/29 02:19:09;;;;;;;3.58;1.90;;;14.30;99.90;;;;;;5071733;28;20044;-79
2022/06/29 02:21:35;;;;;;;3.35;1.98;;;14.30;99.90;;;;;;5053777;28;20123;-77
2022/06/29 02:24:00;;;;;;;2.15;1.95;;;14.40;99.90;;;;;;5071910;28;20119;-78
2022/06/29 02:26:26;;;;;;;4.18;2.15;;;14.40;99.90;;;;;;5053675;28;20186;-77
2022/06/29 02:28:51;;;;;;;3.45;2.05;;;14.50;99.90;;;;;;5054025;28;20063;-77
2022/06/29 02:36:45;;;;;;;3.50;2.33;;;14.50;99.90;;;;;;5053931;28;20518;-78
2022/06/29 02:39:11;;;;;;;4.43;2.03;;;14.60;99.90;;;;;;5041188;28;20119;-78
2022/06/29 02:41:37;;;;;;;4.15;3.10;;;14.60;99.90;;;;;;5057279;28;20045;-80
2022/06/29 02:44:02;;;;;;;3.15;2.17;;;14.70;99.90;;;;;;5075477;28;20051;-78
2022/06/29 02:46:28;;;;;;;2.55;2.25;;;14.70;99.90;;;;;;5057065;28;20044;-78
2022/06/29 02:48:54;;;;;;;3.35;2.13;;;14.70;99.90;;;;;;5057516;28;20067;-77
2022/06/29 02:51:19;;;;;;;6.13;2.40;;;14.70;99.90;;;;;;5040901;28;20040;-78
2022/06/29 02:53:45;;;;;;;5.93;2.53;;;14.70;99.90;;;;;;5070096;28;20100;-80
2022/06/29 02:56:11;;;;;;;4.63;2.53;;;14.80;99.90;;;;;;5056367;28;20098;-80
2022/06/29 02:58:36;;;;;;;7.43;2.47;;;14.80;99.90;;;;;;5073811;28;20484;-80
2022/06/29 03:01:02;;;;;;;2.75;2.38;;;14.80;99.90;;;;;;5055897;28;20120;-80
2022/06/29 03:03:28;;;;;;;4.22;2.50;;;14.80;99.90;;;;;;5073838;28;20044;-80
2022/06/29 03:05:53;;;;;;;5.15;3.08;;;14.80;99.90;;;;;;5055918;28;20052;-80
2022/06/29 03:08:19;;;;;;;4.38;2.67;;;14.80;99.90;;;;;;5056173;28;20407;-80
2022/06/29 03:10:45;;;;;;;5.32;2.83;;;14.70;99.90;;;;;;5055539;28;20085;-80
2022/06/29 03:13:10;;;;;;;3.90;2.25;;;14.70;99.90;;;;;;5074113;28;20039;-80
2022/06/29 03:15:36;;;;;;;6.07;2.67;;;14.70;99.90;;;;;;5039289;28;20097;-80
2022/06/29 03:18:02;;;;;;;5.03;3.13;;;14.70;99.90;;;;;;5073718;28;20033;-81
2022/06/29 03:20:28;;;;;;;4.75;2.90;;;14.70;99.90;;;;;;5073267;28;20044;-80
2022/06/29 03:22:53;;;;;;;7.03;2.72;;;14.70;99.90;;;;;;5055392;28;20071;-80
2022/06/29 03:25:19;;;;;;;4.28;2.42;;;14.70;99.90;;;;;;5073455;28;20028;-80
2022/06/29 03:27:45;;;;;;;4.80;2.47;;;14.60;99.90;;;;;;5073719;28;20075;-80
2022/06/29 03:30:11;;;;;;;3.65;2.70;;;14.70;99.90;;;;;;5073263;28;20080;-80
2022/06/29 03:32:37;;;;;;;2.72;2.53;;;14.60;99.90;;;;;;5055464;28;20128;-80
2022/06/29 03:35:03;;;;;;;8.23;3.08;;;14.60;99.90;;;;;;5055266;28;20123;-80
2022/06/29 03:37:29;;;;;;;5.13;2.90;;;14.60;99.90;;;;;;5055062;28;20040;-80
2022/06/29 03:39:54;;;;;;;4.00;3.10;;;14.70;99.90;;;;;;5038343;28;20037;-82
2022/06/29 03:42:20;;;;;;;4.38;3.25;;;14.70;99.90;;;;;;5073516;28;20407;-81
2022/06/29 03:44:46;;;;;;;6.13;3.20;;;14.70;99.90;;;;;;5073374;28;20044;-81
2022/06/29 03:47:11;;;;;;;5.15;2.90;;;14.70;99.90;;;;;;5073102;28;20037;-80
2022/06/29 03:49:37;;;;;;;3.42;3.13;;;14.80;99.90;;;;;;5053543;28;20043;-81
2022/06/29 03:52:03;;;;;;;4.95;3.03;;;14.70;99.90;;;;;;5055145;28;20052;-81
2022/06/29 03:54:29;;;;;;;5.82;2.72;;;14.80;99.90;;;;;;5038607;28;20447;-81
2022/06/29 03:56:56;;;;;;;5.22;3.05;;;14.90;99.90;;;;;;5073129;28;20036;-80
2022/06/29 03:59:21;;;;;;;4.20;2.60;;;14.80;99.90;;;;;;5038695;28;20044;-80
2022/06/29 04:01:47;;;;;;;3.92;3.00;;;14.80;99.90;;;;;;5072692;28;20045;-81
2022/06/29 04:04:13;;;;;;;6.35;3.20;;;14.90;99.90;;;;;;5038391;28;20044;-81
2022/06/29 04:06:40;;;;;;;3.88;2.90;;;14.90;99.90;;;;;;5072676;28;20119;-81
2022/06/29 04:09:05;;;;;;;4.32;2.80;;;14.90;99.90;;;;;;5055041;28;20051;-81
2022/06/29 04:11:49;;;;;;;5.70;3.40;;;14.90;99.90;;;;;;5054695;28;20040;-81
2022/06/29 04:14:19;;;;;;;4.78;3.08;;;14.90;99.90;;;;;;5073085;28;20055;-81
2022/06/29 04:16:45;;;;;;;4.63;3.38;;;15.00;99.90;;;;;;5072363;28;20051;-81
2022/06/29 04:19:11;;;;;;;4.30;2.88;;;15.00;99.90;;;;;;5072567;28;20040;-81
2022/06/29 04:21:37;;;;;;;4.55;3.35;;;15.00;99.90;;;;;;5072280;28;20040;-81
2022/06/29 04:24:03;;;;;;;5.95;3.70;;;15.00;99.90;;;;;;5054923;28;20041;-81
2022/06/29 04:26:28;;;;;;;6.35;3.10;;;15.10;99.90;;;;;;5072507;28;20499;-81
2022/06/29 04:28:54;;;;;;;4.85;3.10;;;15.00;99.90;;;;;;5072565;28;20039;-81
2022/06/29 04:31:20;;;;;;;3.70;3.40;;;15.10;99.90;;;;;;5054245;28;20059;-82
2022/06/29 04:33:45;;;;;;;6.55;3.83;;;15.00;99.90;;;;;;5054566;28;20040;-82
2022/06/29 04:36:11;;;;;;;6.68;3.22;;;15.20;99.90;;;;;;5054839;28;20033;-82
2022/06/29 04:38:37;;;;;;;6.82;3.42;;;15.30;99.90;;;;;;5038294;28;20097;-82
2022/06/29 04:41:02;;;;;;;4.80;3.35;;;15.30;99.90;;;;;;5037890;28;20075;-82
2022/06/29 04:43:29;;;;;;;4.93;3.65;;;15.30;99.90;;;;;;5054783;28;20145;-82
2022/06/29 04:48:40;;;;;;;5.35;3.80;;;15.50;99.90;;;;;;5055008;28;20578;-82
2022/06/29 04:51:06;;;;;;;5.97;3.58;;;15.60;99.90;;;;;;5054762;28;20045;-82
2022/06/29 04:53:32;;;;;;;5.75;3.85;;;15.70;99.90;;;;;;5054981;28;20042;-82
2022/06/29 04:55:57;;;;;;;5.10;4.03;;;16.10;99.90;;;;;;5039443;28;20527;-82
2022/06/29 04:58:23;;;;;;;6.68;4.28;;;16.30;99.90;;;;;;5038724;28;20041;-83
2022/06/29 05:00:48;;;;;;;5.85;4.00;;;16.40;99.90;;;;;;5055118;28;20483;-82
2022/06/29 05:03:14;;;;;;;9.35;5.93;;;16.50;99.90;;;;;;5064079;28;20052;-83
2022/06/29 05:05:40;;;;;;;14.48;9.20;;;16.60;99.90;;;;;;5064030;28;20028;-82
2022/06/29 05:08:06;;;;;;;10.45;5.63;;;16.60;99.90;;;;;;5096391;28;20038;-85
2022/06/29 05:10:32;;;;;;;6.65;4.53;;;16.80;99.90;;;;;;5079835;28;20040;-83
2022/06/29 05:12:58;;;;;;;4.63;3.80;;;17.10;99.90;;;;;;5053925;28;20174;-83
2022/06/29 05:15:24;;;;;;;4.97;3.65;;;17.60;99.90;;;;;;5037422;28;20044;-82
2022/06/29 05:17:50;;;;;;;5.82;3.75;;;18.20;99.90;;;;;;5037453;28;20444;-83
2022/06/29 05:20:15;;;;;;;8.35;4.22;;;18.80;99.90;;;;;;5054018;28;20036;-83
2022/06/29 05:22:41;;;;;;;5.95;4.28;;;19.40;99.90;;;;;;5054261;28;20047;-83
2022/06/29 05:25:07;;;;;;;6.47;4.38;;;19.80;99.90;;;;;;5037384;28;20052;-83
2022/06/29 05:27:33;;;;;;;8.63;3.67;;;20.10;99.90;;;;;;5053688;28;20036;-83
2022/06/29 05:29:59;;;;;;;7.70;4.10;;;20.50;99.90;;;;;;5053408;28;20110;-84
2022/06/29 05:32:25;;;;;;;12.02;4.95;;;21.00;99.90;;;;;;5037138;28;20400;-84
2022/06/29 05:34:51;;;;;;;9.50;3.78;;;21.20;99.90;;;;;;5053661;28;20037;-84
2022/06/29 05:37:17;;;;;;;5.80;3.50;;;21.50;99.90;;;;;;5053113;28;20119;-82
2022/06/29 05:39:44;;;;;;;8.05;3.38;;;21.80;99.90;;;;;;5071463;28;20040;-82
2022/06/29 05:42:12;;;;;;;5.28;3.10;;;21.90;99.90;;;;;;5053309;28;20048;-82
2022/06/29 05:44:39;;;;;;;4.47;3.13;;;22.00;99.90;;;;;;5053220;28;20123;-83
2022/06/29 05:47:06;;;;;;;6.10;3.15;;;22.20;99.90;;;;;;5036755;28;20076;-83
2022/06/29 05:49:32;;;;;;;10.90;3.40;;;22.40;99.90;;;;;;5036641;28;20413;-83
2022/06/29 05:52:10;;;;;;;5.00;2.92;;;22.70;99.90;;;;;;5036105;28;20066;-83
2022/06/29 05:54:39;;;;;;;6.25;2.92;;;22.80;99.90;;;;;;5036477;28;20044;-83
2022/06/29 05:57:07;;;;;;;4.68;3.05;;;23.00;99.90;;;;;;5035746;28;20123;-83
2022/06/29 05:59:36;;;;;;;6.38;3.08;;;23.30;99.90;;;;;;5036344;28;20036;-83
2022/06/29 06:02:06;;;;;;;7.30;3.30;;;23.60;99.90;;;;;;5035872;28;20090;-83
2022/06/29 06:04:32;;;;;;;3.13;2.80;;;23.60;99.90;;;;;;5052638;28;20102;-83
2022/06/29 06:06:58;;;;;;;6.60;3.00;;;23.90;99.90;;;;;;5036182;28;20044;-83
2022/06/29 06:09:27;;;;;;;5.95;2.70;;;24.10;99.90;;;;;;5036129;28;20515;-83
2022/06/29 06:12:01;;;;;;;5.28;2.40;;;24.30;99.90;;;;;;5036052;28;20470;-83
2022/06/29 06:14:33;;;;;;;5.63;2.70;;;24.40;98.60;;;;;;5040141;28;20037;-83
2022/06/29 06:16:59;;;;;;;3.72;2.55;;;24.60;97.30;;;;;;5056813;28;20032;-83
2022/06/29 06:19:24;;;;;;;5.30;2.70;;;24.70;97.80;;;;;;5074266;28;20043;-79
2022/06/29 06:21:50;;;;;;;4.38;2.17;;;24.90;97.40;;;;;;5074220;28;20044;-79
2022/06/29 06:24:15;;;;;;;3.47;2.10;;;25.00;96.10;;;;;;5056979;28;20070;-80
2022/06/29 06:26:41;;;;;;;2.88;2.05;;;25.20;95.00;;;;;;5056290;28;20045;-80
2022/06/29 06:29:06;;;;;;;5.80;3.15;;;25.40;94.40;;;;;;5056351;28;20037;-79
2022/06/29 06:31:32;;;;;;;4.80;2.22;;;25.60;92.80;;;;;;5056131;28;20045;-80
2022/06/29 06:33:58;;;;;;;2.72;2.00;;;25.70;91.80;;;;;;5056095;28;20407;-79
2022/06/29 06:36:23;;;;;;;4.05;2.22;;;25.80;91.20;;;;;;5056989;28;20033;-79
2022/06/29 06:38:49;;;;;;;2.88;2.20;;;25.90;90.30;;;;;;5057269;28;20044;-83
2022/06/29 06:41:25;;;;;;;4.25;2.25;;;26.10;88.30;;;;;;5039529;28;20425;-83
2022/06/29 06:43:58;;;;;;;4.50;2.17;;;26.20;86.90;;;;;;5056416;28;20044;-83
2022/06/29 06:46:25;;;;;;;5.70;2.80;;;26.50;84.10;;;;;;5039384;28;20094;-83
2022/06/29 06:48:51;;;;;;;2.20;2.00;;;26.60;82.90;;;;;;5055961;28;20044;-83
2022/06/29 06:51:18;;;;;;;2.90;2.22;;;26.90;82.70;;;;;;5073274;28;20053;-82
2022/06/29 06:53:44;;;;;;;6.15;2.20;;;27.00;80.90;;;;;;5055969;28;20064;-83
2022/06/29 06:56:10;;;;;;;4.85;2.17;;;27.20;78.80;;;;;;5039118;28;20044;-83
2022/06/29 06:58:36;;;;;;;4.60;2.25;;;27.20;77.30;;;;;;5055983;28;20051;-82
2022/06/29 07:01:05;;;;;;;5.53;2.30;;;27.40;75.20;;;;;;5055518;28;20038;-82
2022/06/29 07:03:32;;;;;;;7.60;2.60;;;27.40;73.20;;;;;;5039171;28;20085;-83
2022/06/29 07:06:00;;;;;;;5.10;2.42;;;27.60;75.50;;;;;;5055454;28;20079;-83
2022/06/29 07:08:27;;;;;;;4.13;2.03;;;27.80;75.50;;;;;;5055575;28;20056;-83
2022/06/29 07:10:52;;;;;;;4.80;1.65;;;27.90;73.10;;;;;;5038560;28;20045;-82
2022/06/29 07:13:18;;;;;;;3.70;1.55;;;28.00;72.10;;;;;;5073446;28;20044;-82
2022/06/29 07:15:43;;;;;;;4.25;1.50;;;28.20;72.10;;;;;;5038808;28;20047;-82
2022/06/29 07:18:09;;;;;;;2.97;1.42;;;28.20;71.20;;;;;;5038774;28;20059;-83
2022/06/29 07:20:35;;;;;;;3.28;1.50;;;28.40;69.70;;;;;;5055144;28;20033;-82
2022/06/29 07:23:00;;;;;;;4.88;1.63;;;28.30;69.30;;;;;;5055181;28;20044;-82
2022/06/29 07:25:26;;;;;;;3.88;1.58;;;28.30;68.30;;;;;;5054985;28;20579;-82
2022/06/29 07:27:51;;;;;;;2.03;1.30;;;28.20;67.70;;;;;;5038373;28;20466;-82
2022/06/29 07:30:17;;;;;;;3.78;1.33;;;27.80;67.60;;;;;;5038232;28;20417;-82
2022/06/29 07:32:42;;;;;;;2.85;1.20;;;27.60;67.00;;;;;;5055114;28;20047;-82
2022/06/29 07:35:08;;;;;;;3.22;1.38;;;27.70;67.10;;;;;;5054646;28;20048;-82
2022/06/29 07:37:34;;;;;;;1.88;1.20;;;28.00;67.30;;;;;;5038428;28;20036;-82
2022/06/29 07:40:00;;;;;;;3.75;1.30;;;28.20;67.30;;;;;;5055013;28;20047;-82
2022/06/29 07:42:26;;;;;;;1.88;1.38;;;28.30;66.50;;;;;;5054935;28;20040;-82
2022/06/29 07:44:51;;;;;;;2.10;1.50;;;28.30;66.50;;;;;;5054911;28;20507;-82
2022/06/29 07:47:17;;;;;;;4.22;1.38;;;28.10;65.20;;;;;;5054956;28;20041;-82
2022/06/29 07:49:42;;;;;;;3.22;1.13;;;28.20;65.30;;;;;;5054642;28;20058;-82
2022/06/29 07:52:08;;;;;;;2.00;1.00;;;28.50;66.20;;;;;;5038044;28;20044;-82
2022/06/29 07:54:34;;;;;;;3.72;0.90;;;28.80;65.30;;;;;;5054865;28;20044;-82
2022/06/29 07:56:59;;;;;;;3.63;1.02;;;28.90;64.10;;;;;;5072587;28;20068;-82
2022/06/29 07:59:25;;;;;;;1.63;1.05;;;29.00;63.20;;;;;;5054287;28;20399;-82
2022/06/29 08:01:50;;;;;;;3.35;1.40;;;29.00;61.30;;;;;;5072230;28;20123;-82
2022/06/29 08:04:16;;;;;;;1.77;1.20;;;29.00;62.00;;;;;;5037750;28;20488;-82
2022/06/29 08:06:42;;;;;;;2.28;1.35;;;29.00;60.70;;;;;;5054245;28;20040;-82
2022/06/29 08:09:07;;;;;;;5.22;1.60;;;29.10;59.30;;;;;;5054185;28;20094;-82
2022/06/29 08:11:33;;;;;;;3.25;1.63;;;29.00;58.30;;;;;;5054007;28;20393;-82
2022/06/29 08:13:58;;;;;;;4.38;1.88;;;28.90;59.10;;;;;;5054365;28;20037;-82
2022/06/29 08:16:24;;;;;;;3.72;1.73;;;29.10;59.30;;;;;;5054008;28;20062;-81
2022/06/29 08:18:50;;;;;;;2.50;1.77;;;28.90;58.70;;;;;;5054106;28;20041;-83
2022/06/29 08:21:15;;;;;;;3.08;1.80;;;28.90;58.40;;;;;;5053770;28;20090;-82
2022/06/29 08:23:41;;;;;;;4.38;1.98;;;29.00;57.20;;;;;;5053975;28;20495;-83
2022/06/29 08:26:07;;;;;;;4.07;2.08;;;29.10;57.50;;;;;;5053815;28;20047;-82
2022/06/29 08:28:34;;;;;;;3.35;1.27;;;29.00;57.50;;;;;;5054212;28;20079;-82
2022/06/29 08:30:59;;;;;;;3.97;1.90;;;29.00;56.60;;;;;;5053418;28;20080;-82
2022/06/29 08:33:25;;;;;;;5.90;1.30;;;29.20;58.00;;;;;;5054124;28;20098;-82
2022/06/29 08:35:51;;;;;;;2.97;1.40;;;29.30;57.90;;;;;;5053167;28;20040;-82
2022/06/29 08:38:17;;;;;;;2.55;1.13;;;29.10;58.10;;;;;;5054246;28;20107;-82
2022/06/29 08:40:47;;;;;;;4.45;1.50;;;28.70;58.40;;;;;;5053472;28;20559;-82
2022/06/29 08:43:18;;;;;;;3.85;1.38;;;28.40;58.50;;;;;;5053604;28;20082;-81
2022/06/29 08:45:46;;;;;;;2.00;1.10;;;28.10;59.10;;;;;;5053653;28;20072;-82
2022/06/29 08:48:12;;;;;;;3.53;1.40;;;27.80;59.60;;;;;;5053760;28;20491;-82
2022/06/29 08:50:40;;;;;;;4.35;1.58;;;27.70;60.30;;;;;;5053719;28;20078;-81
2022/06/29 08:53:07;;;;;;;4.55;1.60;;;27.50;61.40;;;;;;5054151;28;20071;-80
2022/06/29 08:55:40;;;;;;;4.70;1.55;;;27.50;60.80;;;;;;5059397;28;20041;-81
2022/06/29 08:58:07;;;;;;;2.17;1.50;;;27.30;61.20;;;;;;5057500;28;20399;-82
2022/06/29 09:00:36;;;;;;;4.30;2.05;;;27.30;60.70;;;;;;5039283;28;20109;-81
2022/06/29 09:03:04;;;;;;;2.08;1.27;;;27.20;59.70;;;;;;5039236;28;20044;-82
2022/06/29 09:05:30;;;;;;;2.30;1.55;;;27.20;61.60;;;;;;5058162;28;20484;-83
2022/06/29 09:07:55;;;;;;;2.40;1.20;;;27.20;60.90;;;;;;5054295;28;20089;-82
2022/06/29 09:10:23;;;;;;;2.22;1.55;;;27.30;61.20;;;;;;5054420;28;20048;-81
2022/06/29 09:12:50;;;;;;;4.32;1.40;;;27.50;61.80;;;;;;5058073;28;20048;-81
2022/06/29 09:15:15;;;;;;;3.50;1.30;;;27.80;61.10;;;;;;5058902;28;20037;-81
2022/06/29 09:17:41;;;;;;;3.15;1.25;;;27.90;60.70;;;;;;5039702;28;20048;-80
2022/06/29 09:20:10;;;;;;;2.40;1.58;;;27.90;61.60;;;;;;5054847;28;20044;-80
2022/06/29 09:22:41;;;;;;;2.83;1.40;;;28.00;61.30;;;;;;5055193;28;20048;-82
2022/06/29 09:25:21;;;;;;;3.15;1.30;;;28.00;62.20;;;;;;5058699;28;20131;-82
2022/06/29 09:27:46;;;;;;;2.63;1.10;;;28.00;60.60;;;;;;5057450;28;20063;-81
2022/06/29 09:30:25;;;;;;;4.60;1.38;;;28.20;61.40;;;;;;5074339;28;20032;-81
2022/06/29 09:33:00;;;;;;;4.30;1.50;;;28.20;58.10;;;;;;5068211;28;20515;-82
2022/06/29 09:35:25;;;;;;;1.42;1.10;;;28.20;59.70;;;;;;5054434;28;20045;-82
2022/06/29 09:37:51;;;;;;;4.55;1.20;;;27.90;59.70;;;;;;5054819;28;20045;-82
2022/06/29 09:40:16;;;;;;;6.85;1.50;;;28.00;60.50;;;;;;5053090;28;20048;-82
2022/06/29 09:42:42;;;;;;;2.30;1.50;;;28.10;61.30;;;;;;5053978;28;20410;-82
2022/06/29 09:45:08;;;;;;;3.20;1.20;;;28.30;60.10;;;;;;5053881;28;20037;-82
2022/06/29 09:47:38;;;;;;;5.70;1.75;;;28.50;59.90;;;;;;5057398;28;20514;-81
2022/06/29 09:50:06;;;;;;;3.90;1.35;;;28.70;59.40;;;;;;5057809;28;20399;-82
2022/06/29 09:52:34;;;;;;;6.10;1.50;;;28.90;60.20;;;;;;5057833;28;20438;-82
2022/06/29 09:55:00;;;;;;;2.78;1.25;;;29.20;59.20;;;;;;5057466;28;20090;-82
2022/06/29 09:57:35;;;;;;;1.67;1.20;;;29.30;59.70;;;;;;5057390;28;20040;-82
2022/06/29 10:02:52;;;;;;;3.83;1.92;;;29.60;58.10;;;;;;5057266;28;20071;-82
2022/06/29 10:05:22;;;;;;;2.13;1.20;;;29.80;58.10;;;;;;5041037;28;20147;-81
2022/06/29 10:07:51;;;;;;;1.73;1.30;;;30.20;57.40;;;;;;5040984;28;20044;-81
2022/06/29 10:10:19;;;;;;;3.88;1.60;;;30.40;56.20;;;;;;5058210;28;20052;-81
2022/06/29 10:16:00;;;;;;;2.35;1.63;;;30.80;54.80;;;;;;5057879;28;20059;-82
2022/06/29 10:18:28;;;;;;;6.38;1.70;;;30.80;55.00;;;;;;5057501;28;20041;-82
2022/06/29 10:20:56;;;;;;;3.80;1.50;;;30.70;54.90;;;;;;5057334;28;20571;-82
2022/06/29 10:23:45;;;;;;;2.13;1.38;;;30.80;54.20;;;;;;5057792;28;20525;-81
2022/06/29 10:26:32;;;;;;;2.55;1.20;;;30.80;52.60;;;;;;5056974;28;20036;-82
2022/06/29 10:29:10;;;;;;;3.05;1.20;;;30.70;53.10;;;;;;5056928;28;20083;-82
2022/06/29 10:31:51;;;;;;;2.88;1.20;;;30.60;51.00;;;;;;5056962;28;20482;-82
2022/06/29 10:34:32;;;;;;;1.92;1.42;;;30.50;52.90;;;;;;5056939;28;20047;-81
2022/06/29 10:37:01;;;;;;;;;;;30.50;53.50;;;;;;5056762;28;20055;-82
2022/06/29 10:39:27;;;;;;;5.72;1.75;;;30.40;54.80;;;;;;5057188;28;19916;-81
2022/06/29 10:45:02;;;;;;;4.90;1.77;;;30.50;54.50;;;;;;5056456;28;20056;-81
2022/06/29 10:47:29;;;;;;;1.92;1.63;;;30.60;55.10;;;;;;5056906;28;20055;-82
2022/06/29 10:50:13;;;;;;;3.10;1.67;;;30.60;55.40;;;;;;5056578;28;20546;-81
2022/06/29 10:52:39;;;;;;;5.85;1.50;;;30.70;54.40;;;;;;5057105;28;20415;-82
2022/06/29 10:55:08;;;;;;;2.97;1.60;;;30.90;55.50;;;;;;5056693;28;20394;-82
2022/06/29 10:57:35;;;;;;;4.43;1.55;;;31.00;54.80;;;;;;5057476;28;20040;-81
2022/06/29 11:00:05;;;;;;;3.38;1.90;;;30.90;54.20;;;;;;5056903;28;20513;-82
2022/06/29 11:02:31;;;;;;;3.90;1.67;;;30.60;53.90;;;;;;5056458;28;20048;-82
2022/06/29 11:04:58;;;;;;;2.00;1.75;;;30.10;54.50;;;;;;5074342;28;20062;-82
2022/06/29 11:12:54;;;;;;;2.72;1.98;;;29.00;55.90;;;;;;5055799;28;20084;-82
2022/06/29 11:15:42;;;;;;;2.15;1.80;;;28.80;57.30;;;;;;5039805;28;20043;-81
2022/06/29 11:18:11;;;;;;;4.38;2.10;;;28.70;60.50;;;;;;5056275;28;20079;-82
2022/06/29 11:20:38;;;;;;;2.03;1.67;;;28.50;59.50;;;;;;5055864;28;20071;-81
2022/06/29 11:23:07;;;;;;;4.03;2.17;;;28.40;59.20;;;;;;5056098;28;20040;-82
2022/06/29 11:25:38;;;;;;;1.98;1.77;;;28.30;59.20;;;;;;5056636;28;20552;-81
2022/06/29 11:28:04;;;;;;;3.25;2.10;;;28.20;59.30;;;;;;5058697;28;20123;-80
2022/06/29 11:30:30;;;;;;;3.50;1.92;;;28.10;58.70;;;;;;5056683;28;20394;-81
2022/06/29 11:32:56;;;;;;;2.75;2.00;;;28.20;58.60;;;;;;5039970;28;20574;-81
2022/06/29 11:35:25;;;;;;;5.10;2.28;;;28.10;58.80;;;;;;5057236;28;20075;-81
2022/06/29 11:37:57;;;;;;;4.25;2.00;;;28.10;59.40;;;;;;5056185;28;20032;-81
2022/06/29 11:40:42;;;;;;;4.78;2.17;;;28.00;60.90;;;;;;5055976;28;20083;-81
2022/06/29 11:43:09;;;;;;;5.72;2.00;;;28.00;60.40;;;;;;5055569;28;20493;-81
2022/06/29 11:45:48;;;;;;;5.68;2.60;;;28.10;58.80;;;;;;5056417;28;20044;-81
2022/06/29 11:48:17;;;;;;;3.08;2.38;;;28.20;60.70;;;;;;5056362;28;20044;-81
2022/06/29 11:50:53;;;;;;;3.90;2.50;;;28.50;58.50;;;;;;5055990;28;20486;-81
2022/06/29 11:53:40;;;;;;;2.35;2.15;;;28.80;57.80;;;;;;5055798;28;20057;-81
2022/06/29 11:56:12;;;;;;;2.78;2.45;;;29.10;55.90;;;;;;5040100;28;20048;-82
2022/06/29 11:58:52;;;;;;;3.78;2.40;;;29.30;57.60;;;;;;5038372;28;20325;-81
2022/06/29 12:01:22;;;;;;;7.72;2.63;;;29.30;56.10;;;;;;5054825;28;20518;-81
2022/06/29 12:03:53;;;;;;;4.97;2.63;;;29.00;56.40;;;;;;5055010;28;20044;-81
2022/06/29 12:06:22;;;;;;;4.03;2.88;;;28.80;57.80;;;;;;5055043;28;20076;-81
2022/06/29 12:08:49;;;;;;;3.05;2.42;;;28.60;57.80;;;;;;5055144;28;20044;-81
2022/06/29 12:11:16;;;;;;;3.15;2.15;;;28.40;58.70;;;;;;5036659;28;20193;-81
2022/06/29 12:13:42;;;;;;;3.60;2.38;;;28.20;59.00;;;;;;5038128;28;20036;-81
2022/06/29 12:16:11;;;;;;;3.67;2.20;;;28.10;59.70;;;;;;5054113;28;20044;-82
2022/06/29 12:18:37;;;;;;;3.97;2.20;;;28.00;59.80;;;;;;5055066;28;20041;-82
2022/06/29 12:21:03;;;;;;;3.67;2.40;;;28.20;59.40;;;;;;5037999;28;20141;-81
2022/06/29 12:23:29;;;;;;;3.13;2.10;;;28.40;59.40;;;;;;5055101;28;20044;-81
2022/06/29 12:25:55;;;;;;;2.47;2.22;;;28.60;59.30;;;;;;5037703;28;20047;-81
2022/06/29 12:28:21;;;;;;;3.88;2.42;;;28.70;58.90;;;;;;5054346;28;20415;-81
2022/06/29 12:30:47;;;;;;;2.58;1.83;;;28.80;61.10;;;;;;5054142;28;20036;-81
2022/06/29 12:33:13;;;;;;;2.90;2.60;;;29.00;60.20;;;;;;5054211;28;20049;-81
2022/06/29 12:35:39;;;;;;;3.17;2.58;;;28.90;61.70;;;;;;5054517;28;20035;-82
2022/06/29 12:38:05;;;;;;;2.80;2.30;;;29.00;60.60;;;;;;5054416;28;20483;-82
2022/06/29 12:40:31;;;;;;;4.85;2.42;;;29.10;60.40;;;;;;5053838;28;20066;-81
2022/06/29 12:42:57;;;;;;;3.45;2.65;;;29.20;59.40;;;;;;5037511;28;20036;-81
2022/06/29 12:45:26;;;;;;;6.35;2.80;;;29.30;59.20;;;;;;5037646;28;20049;-81
2022/06/29 12:47:52;;;;;;;7.18;3.00;;;29.40;58.60;;;;;;5053721;28;20040;-81
2022/06/29 12:50:19;;;;;;;2.92;2.35;;;29.40;57.80;;;;;;5053773;28;20131;-81
2022/06/29 12:52:47;;;;;;;2.95;2.75;;;29.50;58.80;;;;;;5053927;28;20041;-81
2022/06/29 12:55:14;;;;;;;3.15;2.30;;;29.50;59.20;;;;;;5053669;28;20041;-81
2022/06/29 12:57:40;;;;;;;4.40;3.10;;;29.60;59.30;;;;;;5037583;28;20044;-80
2022/06/29 13:00:06;;;;;;;4.05;2.38;;;29.70;58.50;;;;;;5072023;28;20431;-79
2022/06/29 13:02:32;;;;;;;4.60;2.20;;;29.60;57.80;;;;;;5037867;28;20045;-81
2022/06/29 13:04:58;;;;;;;4.40;2.03;;;29.70;58.00;;;;;;5053413;28;20041;-79
2022/06/29 13:07:26;;;;;;;4.25;2.70;;;29.80;57.70;;;;;;5053198;28;20036;-79
2022/06/29 13:09:53;;;;;;;5.18;3.20;;;29.80;56.90;;;;;;5053274;28;20044;-80